createdAt,value
2018-10-07T00:02:21.722Z,14.50
2018-10-07T00:04:49.171Z,14.60
2018-10-07T00:07:16.618Z,14.50
2018-10-07T00:09:44.389Z,14.50
2018-10-07T00:12:12.109Z,14.60
2018-10-07T00:14:40.374Z,14.50
2018-10-07T00:17:08.070Z,14.50
2018-10-07T00:19:35.578Z,14.40
2018-10-07T00:22:02.939Z,14.40
2018-10-07T00:24:30.340Z,14.40
2018-10-07T00:26:57.722Z,14.50
2018-10-07T00:29:25.118Z,14.30
2018-10-07T00:31:58.357Z,14.30
2018-10-07T00:34:25.781Z,14.30
2018-10-07T00:36:53.190Z,14.30
2018-10-07T00:39:20.653Z,14.30
2018-10-07T00:41:48.018Z,14.30
2018-10-07T00:44:16.083Z,14.30
2018-10-07T00:46:43.435Z,14.20
2018-10-07T00:49:10.893Z,14.20
2018-10-07T00:51:38.338Z,14.10
2018-10-07T00:54:06.018Z,14.10
2018-10-07T00:56:33.510Z,14.00
2018-10-07T00:59:00.985Z,13.90
2018-10-07T01:01:28.422Z,13.80
2018-10-07T01:03:55.799Z,13.70
2018-10-07T01:06:23.267Z,13.70
2018-10-07T01:08:50.934Z,13.70
2018-10-07T01:11:19.237Z,13.80
2018-10-07T01:13:46.952Z,13.80
2018-10-07T01:16:14.790Z,13.80
2018-10-07T01:18:42.262Z,13.80
2018-10-07T01:21:09.990Z,13.80
2018-10-07T01:23:37.374Z,13.80
2018-10-07T01:26:04.861Z,13.70
2018-10-07T01:28:32.425Z,13.60
2018-10-07T01:30:59.835Z,13.70
2018-10-07T01:33:27.241Z,13.60
2018-10-07T01:35:54.703Z,13.70
2018-10-07T01:38:22.162Z,13.60
2018-10-07T01:40:49.496Z,13.60
2018-10-07T01:43:16.951Z,13.60
2018-10-07T01:45:44.357Z,13.60
2018-10-07T01:48:11.774Z,13.50
2018-10-07T01:50:39.104Z,13.60
2018-10-07T01:53:06.604Z,13.50
2018-10-07T01:55:33.950Z,13.40
2018-10-07T01:58:01.418Z,13.50
2018-10-07T02:00:28.834Z,13.60
2018-10-07T02:02:56.248Z,13.50
2018-10-07T02:05:23.718Z,13.50
2018-10-07T02:07:51.371Z,13.50
2018-10-07T02:10:18.823Z,13.60
2018-10-07T02:12:46.230Z,13.70
2018-10-07T02:15:13.740Z,13.60
2018-10-07T02:17:41.143Z,13.60
2018-10-07T02:20:08.687Z,13.50
2018-10-07T02:22:36.137Z,13.40
2018-10-07T02:25:03.596Z,13.50
2018-10-07T02:27:30.956Z,13.30
2018-10-07T02:29:58.429Z,13.20
2018-10-07T02:32:25.919Z,13.10
2018-10-07T02:34:53.377Z,13.00
2018-10-07T02:37:20.833Z,13.00
2018-10-07T02:39:48.325Z,13.00
2018-10-07T02:42:15.761Z,12.80
2018-10-07T02:44:43.139Z,12.80
2018-10-07T02:47:10.535Z,12.90
2018-10-07T02:49:38.131Z,12.80
2018-10-07T02:52:05.879Z,12.80
2018-10-07T02:54:33.387Z,12.80
2018-10-07T02:57:00.779Z,12.90
2018-10-07T02:59:28.262Z,12.80
2018-10-07T03:01:55.632Z,12.70
2018-10-07T03:04:23.015Z,12.70
2018-10-07T03:06:50.327Z,12.60
2018-10-07T03:09:17.674Z,12.60
2018-10-07T03:11:45.059Z,12.50
2018-10-07T03:14:12.515Z,12.40
2018-10-07T03:16:39.968Z,12.40
2018-10-07T03:19:07.320Z,12.30
2018-10-07T03:21:34.817Z,12.20
2018-10-07T03:24:02.238Z,12.20
2018-10-07T03:26:29.648Z,12.40
2018-10-07T03:28:58.088Z,12.40
2018-10-07T03:31:25.769Z,12.50
2018-10-07T03:33:53.580Z,12.40
2018-10-07T03:36:21.333Z,12.30
2018-10-07T03:38:48.691Z,12.30
2018-10-07T03:41:16.200Z,12.40
2018-10-07T03:43:43.575Z,12.20
2018-10-07T03:46:10.927Z,12.10
2018-10-07T03:48:38.464Z,12.10
2018-10-07T03:51:05.883Z,12.10
2018-10-07T03:53:33.320Z,12.10
2018-10-07T03:56:00.816Z,12.00
2018-10-07T03:58:28.177Z,12.00
2018-10-07T04:00:55.574Z,11.90
2018-10-07T04:03:23.209Z,11.80
2018-10-07T04:05:50.610Z,11.90
2018-10-07T04:08:18.039Z,11.80
2018-10-07T04:10:46.490Z,11.70
2018-10-07T04:13:14.188Z,11.70
2018-10-07T04:15:41.876Z,11.60
2018-10-07T04:18:09.562Z,11.60
2018-10-07T04:20:36.926Z,11.60
2018-10-07T04:23:04.318Z,11.60
2018-10-07T04:25:31.718Z,11.70
2018-10-07T04:27:59.114Z,11.80
2018-10-07T04:30:26.514Z,11.70
2018-10-07T04:32:53.858Z,11.70
2018-10-07T04:35:21.318Z,11.70
2018-10-07T04:37:48.753Z,11.70
2018-10-07T04:40:16.122Z,11.80
2018-10-07T04:42:43.499Z,11.90
2018-10-07T04:45:10.803Z,11.90
2018-10-07T04:47:38.388Z,11.90
2018-10-07T04:50:06.016Z,11.90
2018-10-07T04:52:33.465Z,11.90
2018-10-07T04:55:01.302Z,12.00
2018-10-07T04:57:29.465Z,11.90
2018-10-07T05:00:05.040Z,11.90
2018-10-07T05:02:32.333Z,11.90
2018-10-07T05:04:59.790Z,11.80
2018-10-07T05:07:27.344Z,11.80
2018-10-07T05:10:06.279Z,11.80
2018-10-07T05:12:34.514Z,11.80
2018-10-07T05:15:02.256Z,12.00
2018-10-07T05:17:30.809Z,12.10
2018-10-07T05:19:58.313Z,12.10
2018-10-07T05:22:25.827Z,12.10
2018-10-07T05:24:53.248Z,12.20
2018-10-07T05:27:20.715Z,12.20
2018-10-07T05:29:48.187Z,12.20
2018-10-07T05:32:15.698Z,12.30
2018-10-07T05:34:43.060Z,12.40
2018-10-07T05:37:10.443Z,12.40
2018-10-07T05:39:38.204Z,12.40
2018-10-07T05:42:05.983Z,12.40
2018-10-07T05:44:34.794Z,12.50
2018-10-07T05:47:02.478Z,12.50
2018-10-07T05:49:29.927Z,12.50
2018-10-07T05:51:57.418Z,12.50
2018-10-07T05:54:24.794Z,12.40
2018-10-07T05:56:52.217Z,12.40
2018-10-07T05:59:19.707Z,12.40
2018-10-07T06:01:47.696Z,12.40
2018-10-07T06:04:29.183Z,12.40
2018-10-07T06:06:58.739Z,12.30
2018-10-07T06:09:29.536Z,12.20
2018-10-07T06:11:57.122Z,12.10
2018-10-07T06:14:35.927Z,12.20
2018-10-07T06:17:03.719Z,12.10
2018-10-07T06:19:31.611Z,12.10
2018-10-07T06:21:59.772Z,12.00
2018-10-07T06:24:27.223Z,11.70
2018-10-07T06:26:54.992Z,11.60
2018-10-07T06:29:22.852Z,11.80
2018-10-07T06:31:50.196Z,11.80
2018-10-07T06:34:17.627Z,11.90
2018-10-07T06:36:45.106Z,11.90
2018-10-07T06:39:12.614Z,12.10
2018-10-07T06:41:39.990Z,12.20
2018-10-07T06:44:07.450Z,12.30
2018-10-07T06:46:34.890Z,12.40
2018-10-07T06:49:03.344Z,12.60
2018-10-07T06:51:31.123Z,12.70
2018-10-07T06:53:58.624Z,12.90
2018-10-07T06:56:26.165Z,13.00
2018-10-07T06:58:53.605Z,13.10
2018-10-07T07:01:21.230Z,13.40
2018-10-07T07:03:48.600Z,13.60
2018-10-07T07:06:16.063Z,13.70
2018-10-07T07:08:43.669Z,13.80
2018-10-07T07:11:11.030Z,14.00
2018-10-07T07:13:38.471Z,14.20
2018-10-07T07:16:06.058Z,14.40
2018-10-07T07:18:33.574Z,14.60
2018-10-07T07:21:00.970Z,14.70
2018-10-07T07:23:28.445Z,14.80
2018-10-07T07:25:55.790Z,14.70
2018-10-07T07:28:23.318Z,14.90
2018-10-07T07:30:50.736Z,15.10
2018-10-07T07:33:18.244Z,15.20
2018-10-07T07:35:45.718Z,15.30
2018-10-07T07:38:13.164Z,15.40
2018-10-07T07:40:40.721Z,15.40
2018-10-07T07:43:08.145Z,15.60
2018-10-07T07:45:35.623Z,15.70
2018-10-07T07:48:03.132Z,15.80
2018-10-07T07:50:30.515Z,15.80
2018-10-07T07:52:57.996Z,15.70
2018-10-07T07:55:25.463Z,15.50
2018-10-07T07:57:59.062Z,15.50
2018-10-07T08:00:28.695Z,15.40
2018-10-07T08:02:58.677Z,15.40
2018-10-07T08:05:34.013Z,15.30
2018-10-07T08:08:05.147Z,15.60
2018-10-07T08:10:34.369Z,15.50
2018-10-07T08:13:04.476Z,15.40
2018-10-07T08:15:34.032Z,15.50
2018-10-07T08:18:05.050Z,15.60
2018-10-07T08:20:33.881Z,15.90
2018-10-07T08:23:05.327Z,16.30
2018-10-07T08:25:34.598Z,16.30
2018-10-07T08:28:06.802Z,16.70
2018-10-07T08:30:36.601Z,16.90
2018-10-07T08:33:08.526Z,17.10
2018-10-07T08:35:37.655Z,17.50
2018-10-07T08:38:05.127Z,17.50
2018-10-07T08:40:34.379Z,17.60
2018-10-07T08:43:05.644Z,17.80
2018-10-07T08:45:34.435Z,17.60
2018-10-07T08:48:04.971Z,17.90
2018-10-07T08:50:34.127Z,18.00
2018-10-07T08:53:07.002Z,17.80
2018-10-07T08:55:34.722Z,18.00
2018-10-07T08:58:04.494Z,18.00
2018-10-07T09:00:33.977Z,18.50
2018-10-07T09:03:05.323Z,18.70
2018-10-07T09:05:34.667Z,19.00
2018-10-07T09:08:04.134Z,19.10
2018-10-07T09:10:35.694Z,19.30
2018-10-07T09:13:03.749Z,19.50
2018-10-07T09:15:33.423Z,19.80
2018-10-07T09:18:05.688Z,19.90
2018-10-07T09:20:34.533Z,20.10
2018-10-07T09:23:07.652Z,20.40
2018-10-07T09:25:36.869Z,20.50
2018-10-07T09:28:06.536Z,20.60
2018-10-07T09:30:35.762Z,20.60
2018-10-07T09:33:04.509Z,20.80
2018-10-07T09:35:34.304Z,21.00
2018-10-07T09:38:04.810Z,20.90
2018-10-07T09:40:34.054Z,20.90
2018-10-07T09:43:04.411Z,21.20
2018-10-07T09:45:34.730Z,21.60
2018-10-07T09:48:05.074Z,21.90
2018-10-07T09:50:34.710Z,22.00
2018-10-07T09:53:05.576Z,22.20
2018-10-07T09:55:33.295Z,21.90
2018-10-07T09:58:01.774Z,22.20
2018-10-07T10:00:36.327Z,22.40
2018-10-07T10:03:03.746Z,22.70
2018-10-07T10:05:31.450Z,22.80
2018-10-07T10:07:59.561Z,22.80
2018-10-07T10:10:28.746Z,23.10
2018-10-07T10:12:57.238Z,23.10
2018-10-07T10:15:26.946Z,23.10
2018-10-07T10:18:05.234Z,22.80
2018-10-07T10:21:41.676Z,23.00
2018-10-07T10:26:26.624Z,22.90
2018-10-07T10:29:17.355Z,22.90
2018-10-07T10:31:56.603Z,22.80
2018-10-07T10:34:32.769Z,22.70
2018-10-07T10:37:04.628Z,23.00
2018-10-07T10:40:05.691Z,23.40
2018-10-07T10:42:40.269Z,23.70
2018-10-07T10:45:13.704Z,23.60
2018-10-07T10:47:42.829Z,23.80
2018-10-07T10:51:23.462Z,24.20
2018-10-07T10:54:03.873Z,24.30
2018-10-07T10:57:06.785Z,24.30
2018-10-07T10:59:50.200Z,23.70
2018-10-07T11:02:41.029Z,23.90
2018-10-07T11:05:17.393Z,24.10
2018-10-07T11:07:55.315Z,24.10
2018-10-07T11:10:36.401Z,24.10
2018-10-07T11:13:39.944Z,23.80
2018-10-07T11:16:18.852Z,24.30
2018-10-07T11:18:53.473Z,24.90
2018-10-07T11:21:45.559Z,24.10
2018-10-07T11:24:16.748Z,24.30
2018-10-07T11:26:52.621Z,24.40
2018-10-07T11:30:09.440Z,24.60
2018-10-07T11:32:42.343Z,25.00
2018-10-07T11:35:46.309Z,25.50
2018-10-07T11:39:26.903Z,25.50
2018-10-07T11:42:06.275Z,25.80
2018-10-07T11:45:27.769Z,25.70
2018-10-07T11:48:12.442Z,25.40
2018-10-07T11:51:49.189Z,26.00
2018-10-07T11:54:22.233Z,26.10
2018-10-07T11:56:49.773Z,25.70
2018-10-07T11:59:17.308Z,26.00
2018-10-07T12:01:44.780Z,26.00
2018-10-07T12:04:12.275Z,26.00
2018-10-07T12:06:39.654Z,26.10
2018-10-07T12:09:07.142Z,26.50
2018-10-07T12:11:34.587Z,26.50
2018-10-07T12:14:01.948Z,26.20
2018-10-07T12:16:29.494Z,26.20
2018-10-07T12:18:56.814Z,26.20
2018-10-07T12:21:24.276Z,26.50
2018-10-07T12:23:51.728Z,26.80
2018-10-07T12:26:19.159Z,26.70
2018-10-07T12:28:46.665Z,26.80
2018-10-07T12:31:14.042Z,26.80
2018-10-07T12:33:41.493Z,27.10
2018-10-07T12:36:08.968Z,27.30
2018-10-07T12:38:36.399Z,27.20
2018-10-07T12:41:03.867Z,26.60
2018-10-07T12:43:31.278Z,26.10
2018-10-07T12:45:58.788Z,25.50
2018-10-07T12:48:26.335Z,25.20
2018-10-07T12:50:53.798Z,25.00
2018-10-07T12:53:21.259Z,25.10
2018-10-07T12:55:48.724Z,25.50
2018-10-07T12:58:17.446Z,25.70
2018-10-07T13:00:44.974Z,26.10
2018-10-07T13:03:12.517Z,26.20
2018-10-07T13:05:40.167Z,26.30
2018-10-07T13:08:07.654Z,26.40
2018-10-07T13:10:35.074Z,26.50
2018-10-07T13:13:02.468Z,26.30
2018-10-07T13:15:30.164Z,25.80
2018-10-07T13:17:57.670Z,25.70
2018-10-07T13:20:25.185Z,25.50
2018-10-07T13:22:53.004Z,25.10
2018-10-07T13:25:20.419Z,25.00
2018-10-07T13:27:47.873Z,25.10
2018-10-07T13:30:15.313Z,24.90
2018-10-07T13:32:42.739Z,24.80
2018-10-07T13:35:10.185Z,24.50
2018-10-07T13:37:37.578Z,24.30
2018-10-07T13:40:05.635Z,24.30
2018-10-07T13:42:33.169Z,24.50
2018-10-07T13:45:00.637Z,24.90
2018-10-07T13:47:28.154Z,25.10
2018-10-07T13:49:55.639Z,25.30
2018-10-07T13:52:23.044Z,25.70
2018-10-07T13:54:50.481Z,26.00
2018-10-07T13:57:17.951Z,25.90
2018-10-07T13:59:45.439Z,26.10
2018-10-07T14:02:12.859Z,26.30
2018-10-07T14:04:40.383Z,26.70
2018-10-07T14:07:07.906Z,26.90
2018-10-07T14:09:35.394Z,26.70
2018-10-07T14:12:02.980Z,27.00
2018-10-07T14:14:30.553Z,27.60
2018-10-07T14:16:57.995Z,27.70
2018-10-07T14:19:25.523Z,27.20
2018-10-07T14:21:53.018Z,26.20
2018-10-07T14:24:20.432Z,25.70
2018-10-07T14:26:47.960Z,25.10
2018-10-07T14:29:15.510Z,24.60
2018-10-07T14:31:42.970Z,24.20
2018-10-07T14:34:10.318Z,23.60
2018-10-07T14:36:37.880Z,23.50
2018-10-07T14:39:08.017Z,23.20
2018-10-07T14:41:35.466Z,23.00
2018-10-07T14:44:02.946Z,22.80
2018-10-07T14:46:30.388Z,22.50
2018-10-07T14:48:57.876Z,22.40
2018-10-07T14:51:25.288Z,22.40
2018-10-07T14:53:52.740Z,22.30
2018-10-07T14:56:20.206Z,22.40
2018-10-07T14:58:47.610Z,22.30
2018-10-07T15:01:15.231Z,22.40
2018-10-07T15:03:42.593Z,22.40
2018-10-07T15:06:10.039Z,22.40
2018-10-07T15:08:37.507Z,22.30
2018-10-07T15:11:04.941Z,22.20
2018-10-07T15:13:32.439Z,22.10
2018-10-07T15:16:00.081Z,22.00
2018-10-07T15:18:27.594Z,22.10
2018-10-07T15:20:55.113Z,22.00
2018-10-07T15:23:22.599Z,21.90
2018-10-07T15:25:50.129Z,21.90
2018-10-07T15:28:17.627Z,21.80
2018-10-07T15:30:45.083Z,21.70
2018-10-07T15:33:12.505Z,21.60
2018-10-07T15:35:39.990Z,21.60
2018-10-07T15:38:07.554Z,21.50
2018-10-07T15:40:35.154Z,21.60
2018-10-07T15:43:02.923Z,21.50
2018-10-07T15:45:30.485Z,21.30
2018-10-07T15:47:57.927Z,21.10
2018-10-07T15:50:25.574Z,21.00
2018-10-07T15:52:53.327Z,20.90
2018-10-07T15:55:20.925Z,20.90
2018-10-07T15:57:48.724Z,20.70
2018-10-07T16:00:16.699Z,20.70
2018-10-07T16:02:44.680Z,20.40
2018-10-07T16:05:12.317Z,20.30
2018-10-07T16:07:40.255Z,20.20
2018-10-07T16:10:07.890Z,20.20
2018-10-07T16:12:35.406Z,20.00
2018-10-07T16:15:03.172Z,20.00
2018-10-07T16:17:30.588Z,19.90
2018-10-07T16:19:58.051Z,19.80
2018-10-07T16:22:25.565Z,19.70
2018-10-07T16:24:53.271Z,19.60
2018-10-07T16:27:20.893Z,19.60
2018-10-07T16:29:49.091Z,19.40
2018-10-07T16:32:16.827Z,19.40
2018-10-07T16:34:44.258Z,19.20
2018-10-07T16:37:11.792Z,19.10
2018-10-07T16:39:39.305Z,19.20
2018-10-07T16:42:07.121Z,19.00
2018-10-07T16:44:34.685Z,19.00
2018-10-07T16:47:02.212Z,18.90
2018-10-07T16:49:29.987Z,18.50
2018-10-07T16:51:57.918Z,18.50
2018-10-07T16:54:25.538Z,18.40
2018-10-07T16:56:53.029Z,18.20
2018-10-07T16:59:20.654Z,18.00
2018-10-07T17:01:48.166Z,17.70
2018-10-07T17:04:15.699Z,17.80
2018-10-07T17:06:43.159Z,17.70
2018-10-07T17:09:10.635Z,17.80
2018-10-07T17:11:38.111Z,17.80
2018-10-07T17:14:05.872Z,17.60
2018-10-07T17:16:33.633Z,17.60
2018-10-07T17:19:01.113Z,17.50
2018-10-07T17:21:28.900Z,17.50
2018-10-07T17:23:56.941Z,17.50
2018-10-07T17:26:24.439Z,17.40
2018-10-07T17:28:52.105Z,17.40
2018-10-07T17:31:19.626Z,17.30
2018-10-07T17:33:47.195Z,17.30
2018-10-07T17:36:14.933Z,17.30
2018-10-07T17:38:42.649Z,17.10
2018-10-07T17:41:10.146Z,17.00
2018-10-07T17:43:38.053Z,17.00
2018-10-07T17:46:05.774Z,16.90
2018-10-07T17:48:33.410Z,16.90
2018-10-07T17:51:00.897Z,16.80
2018-10-07T17:53:28.405Z,16.70
2018-10-07T17:55:55.981Z,16.80
2018-10-07T17:58:23.533Z,16.80
2018-10-07T18:00:51.192Z,16.70
2018-10-07T18:03:18.739Z,16.60
2018-10-07T18:05:46.286Z,16.50
2018-10-07T18:08:13.885Z,16.50
2018-10-07T18:10:42.927Z,16.50
2018-10-07T18:13:11.797Z,16.50
2018-10-07T18:15:40.007Z,16.40
2018-10-07T18:18:07.466Z,16.40
2018-10-07T18:20:36.105Z,16.40
2018-10-07T18:23:05.763Z,16.40
2018-10-07T18:25:39.923Z,16.30
2018-10-07T18:28:08.305Z,16.30
2018-10-07T18:30:37.855Z,16.40
2018-10-07T18:33:07.822Z,16.30
2018-10-07T18:35:37.213Z,16.20
2018-10-07T18:38:07.027Z,16.00
2018-10-07T18:40:35.633Z,16.00
2018-10-07T18:43:05.155Z,15.90
2018-10-07T18:45:34.135Z,15.80
2018-10-07T18:48:03.245Z,15.80
2018-10-07T18:50:31.779Z,15.80
2018-10-07T18:53:04.446Z,15.80
2018-10-07T18:55:33.179Z,15.90
2018-10-07T18:58:03.790Z,15.90
2018-10-07T19:00:33.804Z,15.80
2018-10-07T19:03:03.297Z,15.70
2018-10-07T19:05:33.837Z,15.70
2018-10-07T19:08:01.248Z,15.70
2018-10-07T19:10:28.880Z,15.70
2018-10-07T19:12:58.038Z,15.70
2018-10-07T19:15:25.499Z,15.60
2018-10-07T19:17:52.879Z,15.70
2018-10-07T19:20:20.250Z,15.70
2018-10-07T19:22:49.510Z,15.70
2018-10-07T19:25:17.966Z,15.60
2018-10-07T19:27:47.213Z,15.70
2018-10-07T19:30:21.650Z,15.80
2018-10-07T19:32:49.688Z,15.90
2018-10-07T19:35:19.787Z,15.80
2018-10-07T19:37:47.359Z,15.90
2018-10-07T19:40:15.742Z,15.90
2018-10-07T19:42:43.835Z,15.90
2018-10-07T19:45:12.435Z,15.90
2018-10-07T19:47:44.814Z,15.80
2018-10-07T19:50:12.535Z,15.70
2018-10-07T19:52:44.176Z,15.60
2018-10-07T19:55:12.759Z,15.60
2018-10-07T19:57:42.939Z,15.30
2018-10-07T20:00:17.010Z,15.20
2018-10-07T20:02:56.140Z,15.30
2018-10-07T20:05:26.464Z,15.30
2018-10-07T20:07:56.890Z,15.40
2018-10-07T20:10:27.008Z,15.60
2018-10-07T20:12:56.002Z,15.60
2018-10-07T20:15:25.783Z,15.70
2018-10-07T20:17:54.528Z,15.50
2018-10-07T20:20:23.046Z,15.30
2018-10-07T20:22:51.262Z,15.50
2018-10-07T20:25:19.584Z,15.40
2018-10-07T20:27:48.034Z,15.30
2018-10-07T20:30:16.835Z,15.50
2018-10-07T20:32:44.938Z,15.40
2018-10-07T20:35:12.360Z,15.20
2018-10-07T20:37:39.863Z,15.10
2018-10-07T20:40:09.558Z,14.90
2018-10-07T20:42:38.136Z,14.80
2018-10-07T20:45:07.658Z,14.80
2018-10-07T20:47:36.027Z,14.70
2018-10-07T20:50:04.700Z,14.70
2018-10-07T20:52:32.199Z,14.70
2018-10-07T20:55:09.895Z,14.70
2018-10-07T20:57:41.916Z,14.50
2018-10-07T21:00:12.054Z,14.40
2018-10-07T21:02:41.153Z,14.40
2018-10-07T21:05:11.491Z,14.40
2018-10-07T21:07:38.904Z,14.40
2018-10-07T21:10:08.656Z,14.30
2018-10-07T21:12:37.348Z,14.30
2018-10-07T21:15:06.109Z,14.10
2018-10-07T21:17:34.391Z,14.10
2018-10-07T21:20:01.871Z,13.90
2018-10-07T21:22:29.391Z,14.10
2018-10-07T21:24:56.952Z,14.20
2018-10-07T21:27:24.379Z,14.20
2018-10-07T21:29:51.869Z,13.90
2018-10-07T21:32:19.319Z,13.60
2018-10-07T21:34:46.799Z,13.60
2018-10-07T21:37:14.304Z,13.50
2018-10-07T21:39:41.783Z,13.50
2018-10-07T21:42:09.219Z,13.70
2018-10-07T21:44:36.702Z,13.60
2018-10-07T21:47:04.464Z,13.40
2018-10-07T21:49:31.936Z,13.40
2018-10-07T21:51:59.280Z,13.40
2018-10-07T21:54:26.655Z,13.50
2018-10-07T21:56:54.234Z,13.40
2018-10-07T21:59:21.676Z,13.20
2018-10-07T22:01:49.067Z,13.30
2018-10-07T22:04:16.485Z,13.40
2018-10-07T22:06:43.975Z,13.30
2018-10-07T22:09:11.298Z,13.10
2018-10-07T22:11:38.722Z,13.00
2018-10-07T22:14:06.146Z,13.10
2018-10-07T22:16:33.738Z,13.10
2018-10-07T22:19:01.126Z,13.10
2018-10-07T22:21:28.674Z,13.10
2018-10-07T22:23:56.108Z,13.00
2018-10-07T22:26:23.525Z,13.00
2018-10-07T22:28:51.166Z,13.00
2018-10-07T22:31:18.611Z,13.00
2018-10-07T22:33:46.047Z,12.80
2018-10-07T22:36:13.470Z,12.80
2018-10-07T22:38:40.827Z,12.80
2018-10-07T22:41:08.294Z,12.80
2018-10-07T22:43:35.756Z,12.80
2018-10-07T22:46:03.191Z,12.60
2018-10-07T22:48:30.597Z,12.50
2018-10-07T22:50:58.094Z,12.50
2018-10-07T22:53:25.507Z,12.60
2018-10-07T22:55:52.923Z,12.70
2018-10-07T22:58:20.392Z,12.60
2018-10-07T23:00:47.831Z,12.50
2018-10-07T23:03:15.285Z,12.40
2018-10-07T23:05:42.723Z,12.30
2018-10-07T23:08:10.270Z,12.40
2018-10-07T23:10:37.685Z,12.50
2018-10-07T23:13:05.155Z,12.60
2018-10-07T23:15:32.687Z,12.50
2018-10-07T23:18:00.121Z,12.40
2018-10-07T23:20:27.569Z,12.50
2018-10-07T23:22:54.919Z,12.70
2018-10-07T23:25:22.385Z,12.70
2018-10-07T23:27:49.869Z,12.80
2018-10-07T23:30:17.349Z,12.70
2018-10-07T23:32:44.794Z,12.70
2018-10-07T23:35:12.093Z,12.60
2018-10-07T23:37:39.475Z,12.60
2018-10-07T23:40:07.302Z,12.50
2018-10-07T23:42:34.700Z,12.50
2018-10-07T23:45:02.167Z,12.50
2018-10-07T23:47:29.721Z,12.60
2018-10-07T23:49:57.052Z,12.50
2018-10-07T23:52:24.427Z,12.60
2018-10-07T23:54:51.793Z,12.50
2018-10-07T23:57:19.214Z,12.40
2018-10-07T23:59:46.699Z,12.20
